createdAt,value
2022-10-18T00:01:03.206Z,62.82
2022-10-18T00:03:30.359Z,63.04
2022-10-18T00:05:57.873Z,63.82
2022-10-18T00:08:27.485Z,63.72
2022-10-18T00:10:54.464Z,61.48
2022-10-18T00:13:21.400Z,61.37
2022-10-18T00:15:56.730Z,61.70
2022-10-18T00:18:24.312Z,61.72
2022-10-18T00:21:03.988Z,63.01
2022-10-18T00:23:31.397Z,63.32
2022-10-18T00:26:08.394Z,63.44
2022-10-18T00:28:39.183Z,63.98
2022-10-18T00:31:26.142Z,62.69
2022-10-18T00:34:00.803Z,62.69
2022-10-18T00:36:28.970Z,62.55
2022-10-18T00:38:56.018Z,62.70
2022-10-18T00:41:28.284Z,63.99
2022-10-18T00:44:02.513Z,65.23
2022-10-18T00:46:37.943Z,64.95
2022-10-18T00:49:08.068Z,63.07
2022-10-18T00:51:40.232Z,62.45
2022-10-18T00:54:10.327Z,62.46
2022-10-18T00:56:37.658Z,62.73
2022-10-18T00:59:04.694Z,63.43
2022-10-18T01:01:32.384Z,63.44
2022-10-18T01:03:59.374Z,64.60
2022-10-18T01:06:28.396Z,64.70
2022-10-18T01:09:01.189Z,63.19
2022-10-18T01:11:37.244Z,62.50
2022-10-18T01:14:36.114Z,62.85
2022-10-18T01:17:32.540Z,63.12
2022-10-18T01:20:07.611Z,63.59
2022-10-18T01:22:49.909Z,64.54
2022-10-18T01:25:39.122Z,63.47
2022-10-18T01:28:18.446Z,61.13
2022-10-18T01:30:59.533Z,61.26
2022-10-18T01:33:34.337Z,61.18
2022-10-18T01:36:06.197Z,61.42
2022-10-18T01:38:33.238Z,62.39
2022-10-18T01:41:00.693Z,62.40
2022-10-18T01:43:27.661Z,62.77
2022-10-18T01:45:54.918Z,63.69
2022-10-18T01:48:22.041Z,62.88
2022-10-18T01:50:49.408Z,60.92
2022-10-18T01:53:28.104Z,60.56
2022-10-18T01:56:01.713Z,61.48
2022-10-18T01:58:33.348Z,61.42
2022-10-18T02:01:21.135Z,61.56
2022-10-18T02:03:48.126Z,61.66
2022-10-18T02:06:26.330Z,63.25
2022-10-18T02:09:08.372Z,64.55
2022-10-18T02:11:36.544Z,62.88
2022-10-18T02:14:08.884Z,62.30
2022-10-18T02:16:43.679Z,61.82
2022-10-18T02:19:15.980Z,62.65
2022-10-18T02:21:43.753Z,63.02
2022-10-18T02:24:12.850Z,64.18
2022-10-18T02:26:39.891Z,64.86
2022-10-18T02:29:07.041Z,63.89
2022-10-18T02:31:47.313Z,63.54
2022-10-18T02:34:21.121Z,63.61
2022-10-18T02:36:49.492Z,63.85
2022-10-18T02:39:22.504Z,64.53
2022-10-18T02:41:49.558Z,65.62
2022-10-18T02:44:16.550Z,65.13
2022-10-18T02:46:43.505Z,63.55
2022-10-18T02:49:10.554Z,62.65
2022-10-18T02:51:37.873Z,62.72
2022-10-18T02:54:05.032Z,63.14
2022-10-18T02:56:32.162Z,63.83
2022-10-18T02:58:59.149Z,63.86
2022-10-18T03:01:26.205Z,64.05
2022-10-18T03:03:53.292Z,64.47
2022-10-18T03:06:20.619Z,64.71
2022-10-18T03:08:47.558Z,62.79
2022-10-18T03:11:17.694Z,61.93
2022-10-18T03:13:46.096Z,61.08
2022-10-18T03:16:13.535Z,61.32
2022-10-18T03:18:44.319Z,62.45
2022-10-18T03:21:11.737Z,63.25
2022-10-18T03:23:38.721Z,63.75
2022-10-18T03:26:06.826Z,61.95
2022-10-18T03:28:34.300Z,61.35
2022-10-18T03:31:02.450Z,61.06
2022-10-18T03:33:30.462Z,61.75
2022-10-18T03:35:58.389Z,63.59
2022-10-18T03:38:25.382Z,64.52
2022-10-18T03:40:53.334Z,64.47
2022-10-18T03:43:20.221Z,63.30
2022-10-18T03:45:47.149Z,62.28
2022-10-18T03:48:14.277Z,62.55
2022-10-18T03:50:43.410Z,62.87
2022-10-18T03:53:10.490Z,63.76
2022-10-18T03:55:38.431Z,64.69
2022-10-18T03:58:05.364Z,65.04
2022-10-18T04:00:34.360Z,65.64
2022-10-18T04:03:01.501Z,63.79
2022-10-18T04:05:31.281Z,63.46
2022-10-18T04:07:58.418Z,63.48
2022-10-18T04:10:25.942Z,63.56
2022-10-18T04:12:55.538Z,63.63
2022-10-18T04:15:22.441Z,63.53
2022-10-18T04:17:49.394Z,64.45
2022-10-18T04:20:16.906Z,64.96
2022-10-18T04:22:43.829Z,63.47
2022-10-18T04:25:10.848Z,63.27
2022-10-18T04:27:37.909Z,63.28
2022-10-18T04:30:05.403Z,63.98
2022-10-18T04:32:35.160Z,64.30
2022-10-18T04:35:03.280Z,63.97
2022-10-18T04:37:30.879Z,65.01
2022-10-18T04:39:58.317Z,65.11
2022-10-18T04:42:25.423Z,63.29
2022-10-18T04:44:52.957Z,62.58
2022-10-18T04:47:20.104Z,62.74
2022-10-18T04:49:47.518Z,62.93
2022-10-18T04:52:15.099Z,62.63
2022-10-18T04:54:42.122Z,63.06
2022-10-18T04:57:09.269Z,63.90
2022-10-18T04:59:37.270Z,64.25
2022-10-18T05:02:04.970Z,63.26
2022-10-18T05:04:32.040Z,63.08
2022-10-18T05:06:59.129Z,62.32
2022-10-18T05:09:28.540Z,62.30
2022-10-18T05:11:56.392Z,61.67
2022-10-18T05:14:24.152Z,63.56
2022-10-18T05:16:53.895Z,64.19
2022-10-18T05:19:21.603Z,64.36
2022-10-18T05:21:48.557Z,63.17
2022-10-18T05:24:15.565Z,61.66
2022-10-18T05:26:46.344Z,62.08
2022-10-18T05:29:13.857Z,61.31
2022-10-18T05:31:40.909Z,61.50
2022-10-18T05:34:07.929Z,61.61
2022-10-18T05:36:34.958Z,60.93
2022-10-18T05:39:05.645Z,58.80
2022-10-18T05:41:32.805Z,56.84
2022-10-18T05:44:03.786Z,56.29
2022-10-18T05:46:30.814Z,56.38
2022-10-18T05:48:57.894Z,56.60
2022-10-18T05:51:25.450Z,57.27
2022-10-18T05:53:54.832Z,57.69
2022-10-18T05:56:22.544Z,57.74
2022-10-18T05:58:52.771Z,56.75
2022-10-18T06:01:19.931Z,54.45
2022-10-18T06:03:47.135Z,53.50
2022-10-18T06:06:15.876Z,53.02
2022-10-18T06:08:43.375Z,52.76
2022-10-18T06:11:17.621Z,51.79
2022-10-18T06:13:49.342Z,51.81
2022-10-18T06:16:18.842Z,52.36
2022-10-18T06:18:50.278Z,51.59
2022-10-18T06:21:17.195Z,50.94
2022-10-18T06:23:49.202Z,51.48
2022-10-18T06:26:16.220Z,51.29
2022-10-18T06:28:43.764Z,50.60
2022-10-18T06:31:11.183Z,50.15
2022-10-18T06:33:38.466Z,50.12
2022-10-18T06:36:18.505Z,49.27
2022-10-18T06:38:47.796Z,48.73
2022-10-18T06:41:14.957Z,48.39
2022-10-18T06:43:42.272Z,48.76
2022-10-18T06:46:09.277Z,48.92
2022-10-18T06:48:36.595Z,48.91
2022-10-18T06:51:05.451Z,48.87
2022-10-18T06:53:40.760Z,49.04
2022-10-18T06:56:12.818Z,48.53
2022-10-18T06:58:40.939Z,48.93
2022-10-18T07:01:18.537Z,48.56
2022-10-18T07:03:47.110Z,48.48
2022-10-18T07:06:14.989Z,47.85
2022-10-18T07:08:41.958Z,48.25
2022-10-18T07:11:09.318Z,48.17
2022-10-18T07:13:36.298Z,47.66
2022-10-18T07:16:06.049Z,47.68
2022-10-18T07:18:34.614Z,47.42
2022-10-18T07:21:06.015Z,47.56
2022-10-18T07:23:34.794Z,47.96
2022-10-18T07:26:02.301Z,47.86
2022-10-18T07:28:30.218Z,47.71
2022-10-18T07:30:57.205Z,47.90
2022-10-18T07:33:25.970Z,48.03
2022-10-18T07:35:52.881Z,47.65
2022-10-18T07:38:20.084Z,47.88
2022-10-18T07:40:47.064Z,47.46
2022-10-18T07:43:15.069Z,47.45
2022-10-18T07:45:42.907Z,47.87
2022-10-18T07:48:09.770Z,47.25
2022-10-18T07:50:38.086Z,47.76
2022-10-18T07:53:05.103Z,47.79
2022-10-18T07:55:32.022Z,47.43
2022-10-18T07:58:00.467Z,47.29
2022-10-18T08:00:27.638Z,46.90
2022-10-18T08:02:58.302Z,46.67
2022-10-18T08:05:25.928Z,46.46
2022-10-18T08:07:53.818Z,45.81
2022-10-18T08:10:22.081Z,46.20
2022-10-18T08:12:53.298Z,45.42
2022-10-18T08:15:24.003Z,45.74
2022-10-18T08:17:52.131Z,45.59
2022-10-18T08:20:30.422Z,45.73
2022-10-18T08:23:00.306Z,46.16
2022-10-18T08:25:28.781Z,46.07
2022-10-18T08:27:56.903Z,45.52
2022-10-18T08:30:24.063Z,45.66
2022-10-18T08:32:52.282Z,45.66
2022-10-18T08:35:19.493Z,46.39
2022-10-18T08:37:48.602Z,45.82
2022-10-18T08:40:15.615Z,46.08
2022-10-18T08:43:07.287Z,45.57
2022-10-18T08:45:43.348Z,45.86
2022-10-18T08:48:19.012Z,45.65
2022-10-18T08:50:47.247Z,44.72
2022-10-18T08:53:36.260Z,44.38
2022-10-18T08:56:15.042Z,44.42
2022-10-18T08:58:45.130Z,44.44
2022-10-18T09:01:15.733Z,44.37
2022-10-18T09:04:21.424Z,43.42
2022-10-18T09:06:48.909Z,42.56
2022-10-18T09:09:34.531Z,42.65
2022-10-18T09:12:08.755Z,43.83
2022-10-18T09:14:35.730Z,42.71
2022-10-18T09:17:35.641Z,43.39
2022-10-18T09:20:27.059Z,43.04
2022-10-18T09:23:02.641Z,41.46
2022-10-18T09:25:37.184Z,41.31
2022-10-18T09:28:14.111Z,41.88
2022-10-18T09:31:05.481Z,41.19
2022-10-18T09:33:55.498Z,41.63
2022-10-18T09:36:28.107Z,40.94
2022-10-18T09:38:59.881Z,40.55
2022-10-18T09:41:41.313Z,40.74
2022-10-18T09:44:31.949Z,41.44
2022-10-18T09:47:22.637Z,40.42
2022-10-18T09:49:56.855Z,39.10
2022-10-18T09:52:27.674Z,40.06
2022-10-18T09:54:57.309Z,39.71
2022-10-18T09:59:00.285Z,38.70
2022-10-18T10:01:30.772Z,39.42
2022-10-18T10:03:58.564Z,38.79
2022-10-18T10:06:26.796Z,38.54
2022-10-18T10:09:01.424Z,37.75
2022-10-18T10:11:40.236Z,37.58
2022-10-18T10:14:09.038Z,37.09
2022-10-18T10:16:43.767Z,37.27
2022-10-18T10:19:40.381Z,36.97
2022-10-18T10:22:12.697Z,36.82
2022-10-18T10:24:49.961Z,37.36
2022-10-18T10:27:49.202Z,36.55
2022-10-18T10:30:29.466Z,37.62
2022-10-18T10:32:59.824Z,37.49
2022-10-18T10:35:53.417Z,37.14
2022-10-18T10:38:28.729Z,36.67
2022-10-18T10:40:56.311Z,37.40
2022-10-18T10:43:38.834Z,36.18
2022-10-18T10:46:13.173Z,36.64
2022-10-18T10:49:15.415Z,35.10
2022-10-18T10:51:43.681Z,35.28
2022-10-18T10:54:16.438Z,35.74
2022-10-18T10:57:04.395Z,36.28
2022-10-18T10:59:39.000Z,35.76
2022-10-18T11:02:18.282Z,34.16
2022-10-18T11:04:46.729Z,34.31
2022-10-18T11:07:21.961Z,35.06
2022-10-18T11:10:10.469Z,34.40
2022-10-18T11:12:42.742Z,35.50
2022-10-18T11:15:10.605Z,35.60
2022-10-18T11:17:57.932Z,35.59
2022-10-18T11:20:30.270Z,35.23
2022-10-18T11:23:00.374Z,34.87
2022-10-18T11:25:56.882Z,34.35
2022-10-18T11:28:36.361Z,34.02
2022-10-18T11:31:27.723Z,34.28
2022-10-18T11:34:16.465Z,33.72
2022-10-18T11:37:22.889Z,33.94
2022-10-18T11:39:52.718Z,33.77
2022-10-18T11:42:35.598Z,33.55
2022-10-18T11:45:11.653Z,33.72
2022-10-18T11:48:10.283Z,33.74
2022-10-18T11:50:43.061Z,32.72
2022-10-18T11:53:13.868Z,33.47
2022-10-18T11:55:57.385Z,33.00
2022-10-18T11:58:42.891Z,32.27
2022-10-18T12:01:28.501Z,33.32
2022-10-18T12:04:19.290Z,32.60
2022-10-18T12:06:48.904Z,33.39
2022-10-18T12:09:36.501Z,33.51
2022-10-18T12:12:19.475Z,33.55
2022-10-18T12:14:50.215Z,34.73
2022-10-18T12:17:57.226Z,34.34
2022-10-18T12:20:35.197Z,33.63
2022-10-18T12:23:22.171Z,32.31
2022-10-18T12:25:54.239Z,32.34
2022-10-18T12:28:33.797Z,33.22
2022-10-18T12:31:08.767Z,33.89
2022-10-18T12:33:38.508Z,32.74
2022-10-18T12:36:20.978Z,32.85
2022-10-18T12:38:53.192Z,33.83
2022-10-18T12:41:31.340Z,34.23
2022-10-18T12:44:06.025Z,34.30
2022-10-18T12:46:51.763Z,34.15
2022-10-18T12:49:34.120Z,33.55
2022-10-18T12:52:03.669Z,34.34
2022-10-18T12:54:32.506Z,33.54
2022-10-18T12:57:01.149Z,33.69
2022-10-18T12:59:28.341Z,33.85
2022-10-18T13:01:55.863Z,33.82
2022-10-18T13:04:29.153Z,33.18
2022-10-18T13:07:05.301Z,34.75
2022-10-18T13:09:36.338Z,34.39
2022-10-18T13:12:09.335Z,34.98
2022-10-18T13:15:13.473Z,34.19
2022-10-18T13:18:01.618Z,34.39
2022-10-18T13:20:39.565Z,34.81
2022-10-18T13:23:49.481Z,34.69
2022-10-18T13:26:23.102Z,36.01
2022-10-18T13:28:56.698Z,36.29
2022-10-18T13:31:54.967Z,36.19
2022-10-18T13:34:24.730Z,35.23
2022-10-18T13:37:00.531Z,36.34
2022-10-18T13:39:27.717Z,35.87
2022-10-18T13:41:58.104Z,36.65
2022-10-18T13:44:39.911Z,36.17
2022-10-18T13:47:07.458Z,36.28
2022-10-18T13:49:40.674Z,36.59
2022-10-18T13:52:17.418Z,36.84
2022-10-18T13:54:47.161Z,37.10
2022-10-18T13:57:15.109Z,37.51
2022-10-18T14:00:17.060Z,37.46
2022-10-18T14:02:52.017Z,37.48
2022-10-18T14:05:46.825Z,37.54
2022-10-18T14:08:20.382Z,38.25
2022-10-18T14:11:16.497Z,38.04
2022-10-18T14:14:11.160Z,39.10
2022-10-18T14:16:50.336Z,38.63
2022-10-18T14:19:23.386Z,39.37
2022-10-18T14:22:07.543Z,39.96
2022-10-18T14:24:35.703Z,39.77
2022-10-18T14:27:32.995Z,40.36
2022-10-18T14:30:08.275Z,40.17
2022-10-18T14:32:44.182Z,40.98
2022-10-18T14:35:37.633Z,41.28
2022-10-18T14:38:04.729Z,41.05
2022-10-18T14:40:39.148Z,41.48
2022-10-18T14:43:09.181Z,42.45
2022-10-18T14:45:36.147Z,43.34
2022-10-18T14:48:20.905Z,43.08
2022-10-18T14:50:59.310Z,43.94
2022-10-18T14:53:30.934Z,44.04
2022-10-18T14:56:04.513Z,45.37
2022-10-18T14:58:32.057Z,46.10
2022-10-18T15:00:59.449Z,46.39
2022-10-18T15:03:28.416Z,46.58
2022-10-18T15:06:00.484Z,47.21
2022-10-18T15:08:35.831Z,47.16
2022-10-18T15:11:02.840Z,47.34
2022-10-18T15:13:31.742Z,47.30
2022-10-18T15:16:01.039Z,47.93
2022-10-18T15:21:21.453Z,49.21
2022-10-18T15:23:49.537Z,49.58
2022-10-18T15:26:23.011Z,50.26
2022-10-18T15:28:54.080Z,50.99
2022-10-18T15:31:28.745Z,51.31
2022-10-18T15:34:18.706Z,51.95
2022-10-18T15:36:46.130Z,52.58
2022-10-18T15:39:17.056Z,52.84
2022-10-18T15:41:44.001Z,53.46
2022-10-18T15:44:34.719Z,53.49
2022-10-18T15:47:13.978Z,54.02
2022-10-18T15:49:42.482Z,54.89
2022-10-18T15:52:10.817Z,55.18
2022-10-18T15:54:38.341Z,55.27
2022-10-18T15:57:09.723Z,55.51
2022-10-18T15:59:37.074Z,56.15
2022-10-18T16:02:04.371Z,56.76
2022-10-18T16:04:32.488Z,57.04
2022-10-18T16:06:59.798Z,57.41
2022-10-18T16:09:28.367Z,57.41
2022-10-18T16:11:58.273Z,57.15
2022-10-18T16:14:30.238Z,55.51
2022-10-18T16:17:01.882Z,55.09
2022-10-18T16:19:30.147Z,55.36
2022-10-18T16:22:01.154Z,55.62
2022-10-18T16:24:33.454Z,56.14
2022-10-18T16:27:00.628Z,56.63
2022-10-18T16:29:32.115Z,57.01
2022-10-18T16:32:00.062Z,57.64
2022-10-18T16:34:27.544Z,57.98
2022-10-18T16:36:54.863Z,58.44
2022-10-18T16:39:22.358Z,58.30
2022-10-18T16:41:51.341Z,59.11
2022-10-18T16:44:19.367Z,58.95
2022-10-18T16:46:51.084Z,57.27
2022-10-18T16:49:24.262Z,56.74
2022-10-18T16:51:52.566Z,56.96
2022-10-18T16:54:19.719Z,57.39
2022-10-18T16:56:47.936Z,57.81
2022-10-18T16:59:26.445Z,58.38
2022-10-18T17:01:53.619Z,58.95
2022-10-18T17:04:21.325Z,59.37
2022-10-18T17:06:49.944Z,59.99
2022-10-18T17:09:17.183Z,59.88
2022-10-18T17:11:44.766Z,58.42
2022-10-18T17:14:12.013Z,57.96
2022-10-18T17:16:39.600Z,57.99
2022-10-18T17:19:08.237Z,58.02
2022-10-18T17:21:35.851Z,58.57
2022-10-18T17:24:12.052Z,59.42
2022-10-18T17:26:39.733Z,59.75
2022-10-18T17:29:10.664Z,60.16
2022-10-18T17:31:38.021Z,60.85
2022-10-18T17:34:05.195Z,60.41
2022-10-18T17:36:33.595Z,58.91
2022-10-18T17:39:00.913Z,58.45
2022-10-18T17:41:28.757Z,58.61
2022-10-18T17:43:55.954Z,58.45
2022-10-18T17:46:23.815Z,58.93
2022-10-18T17:48:51.053Z,59.63
2022-10-18T17:51:19.101Z,60.28
2022-10-18T17:53:46.521Z,60.90
2022-10-18T17:56:16.345Z,61.32
2022-10-18T17:58:45.600Z,61.01
2022-10-18T18:01:17.919Z,59.51
2022-10-18T18:03:45.116Z,58.45
2022-10-18T18:06:14.127Z,58.21
2022-10-18T18:08:44.541Z,59.13
2022-10-18T18:11:11.861Z,59.59
2022-10-18T18:13:38.983Z,59.94
2022-10-18T18:16:13.371Z,60.42
2022-10-18T18:18:40.770Z,61.21
2022-10-18T18:21:11.422Z,60.95
2022-10-18T18:23:40.909Z,59.67
2022-10-18T18:26:08.410Z,59.01
2022-10-18T18:28:36.431Z,58.94
2022-10-18T18:31:09.059Z,59.56
2022-10-18T18:33:37.965Z,60.06
2022-10-18T18:36:06.774Z,60.71
2022-10-18T18:38:35.290Z,61.13
2022-10-18T18:41:10.128Z,61.72
2022-10-18T18:43:38.626Z,61.40
2022-10-18T18:46:05.894Z,60.18
2022-10-18T18:48:33.754Z,59.60
2022-10-18T18:51:01.843Z,59.85
2022-10-18T18:53:29.719Z,60.00
2022-10-18T18:56:08.237Z,60.66
2022-10-18T18:58:36.001Z,61.34
2022-10-18T19:01:08.390Z,61.85
2022-10-18T19:03:35.969Z,62.09
2022-10-18T19:06:08.304Z,61.75
2022-10-18T19:08:36.798Z,60.50
2022-10-18T19:11:09.077Z,59.84
2022-10-18T19:13:36.607Z,60.00
2022-10-18T19:16:30.949Z,60.28
2022-10-18T19:19:06.497Z,60.79
2022-10-18T19:21:41.402Z,61.40
2022-10-18T19:24:08.879Z,61.79
2022-10-18T19:26:44.871Z,62.51
2022-10-18T19:29:13.067Z,62.14
2022-10-18T19:31:40.117Z,60.69
2022-10-18T19:34:09.816Z,59.81
2022-10-18T19:36:39.593Z,60.14
2022-10-18T19:39:07.757Z,60.33
2022-10-18T19:41:35.282Z,60.79
2022-10-18T19:44:02.325Z,61.48
2022-10-18T19:46:29.475Z,62.48
2022-10-18T19:48:57.226Z,62.55
2022-10-18T19:51:27.956Z,61.19
2022-10-18T19:53:55.906Z,60.54
2022-10-18T19:56:23.539Z,60.01
2022-10-18T19:58:50.840Z,60.28
2022-10-18T20:01:18.356Z,61.26
2022-10-18T20:03:45.834Z,61.98
2022-10-18T20:06:12.866Z,62.93
2022-10-18T20:08:39.852Z,62.72
2022-10-18T20:11:08.759Z,61.42
2022-10-18T20:13:36.158Z,60.43
2022-10-18T20:16:04.672Z,60.53
2022-10-18T20:18:33.809Z,60.69
2022-10-18T20:21:00.923Z,60.59
2022-10-18T20:23:32.451Z,61.81
2022-10-18T20:26:00.769Z,61.93
2022-10-18T20:28:28.125Z,61.69
2022-10-18T20:31:01.505Z,60.96
2022-10-18T20:33:29.074Z,60.62
2022-10-18T20:35:56.119Z,60.54
2022-10-18T20:38:23.158Z,60.72
2022-10-18T20:40:51.028Z,61.85
2022-10-18T20:43:18.248Z,62.05
2022-10-18T20:45:45.261Z,63.30
2022-10-18T20:48:12.309Z,62.50
2022-10-18T20:50:42.466Z,61.12
2022-10-18T20:53:11.315Z,60.82
2022-10-18T20:55:39.162Z,60.89
2022-10-18T20:58:06.889Z,61.36
2022-10-18T21:00:34.305Z,60.51
2022-10-18T21:03:02.165Z,61.78
2022-10-18T21:05:31.837Z,62.80
2022-10-18T21:07:59.737Z,62.87
2022-10-18T21:10:27.332Z,61.51
2022-10-18T21:12:55.605Z,61.23
2022-10-18T21:15:24.442Z,61.33
2022-10-18T21:17:55.078Z,61.60
2022-10-18T21:20:21.986Z,61.68
2022-10-18T21:22:49.451Z,62.24
2022-10-18T21:25:16.830Z,63.13
2022-10-18T21:27:45.277Z,63.07
2022-10-18T21:32:44.510Z,60.53
2022-10-18T21:35:11.928Z,61.06
2022-10-18T21:37:38.965Z,61.36
2022-10-18T21:40:06.798Z,61.41
2022-10-18T21:42:34.439Z,62.29
2022-10-18T21:45:01.605Z,62.33
2022-10-18T21:47:32.051Z,62.46
2022-10-18T21:49:59.148Z,62.64
2022-10-18T21:52:26.053Z,61.26
2022-10-18T21:54:54.053Z,60.64
2022-10-18T21:57:21.041Z,60.35
2022-10-18T21:59:47.934Z,61.19
2022-10-18T22:02:15.102Z,60.99
2022-10-18T22:04:42.140Z,61.63
2022-10-18T22:07:10.831Z,62.85
2022-10-18T22:09:42.064Z,63.04
2022-10-18T22:12:10.860Z,62.01
2022-10-18T22:14:38.160Z,60.69
2022-10-18T22:17:05.191Z,61.18
2022-10-18T22:19:32.597Z,60.94
2022-10-18T22:21:59.561Z,62.03
2022-10-18T22:24:26.707Z,62.65
2022-10-18T22:26:53.722Z,63.57
2022-10-18T22:29:21.068Z,63.57
2022-10-18T22:31:53.299Z,62.97
2022-10-18T22:34:22.017Z,62.13
2022-10-18T22:36:49.037Z,61.02
2022-10-18T22:39:16.874Z,61.27
2022-10-18T22:41:46.616Z,61.51
2022-10-18T22:44:14.579Z,61.75
2022-10-18T22:46:41.632Z,62.37
2022-10-18T22:49:08.747Z,63.04
2022-10-18T22:54:08.153Z,61.56
2022-10-18T22:56:35.372Z,60.68
2022-10-18T22:59:02.456Z,60.44
2022-10-18T23:01:29.556Z,61.39
2022-10-18T23:03:58.995Z,61.56
2022-10-18T23:06:34.966Z,61.74
2022-10-18T23:09:06.138Z,61.97
2022-10-18T23:11:33.657Z,63.78
2022-10-18T23:14:03.822Z,63.45
2022-10-18T23:16:32.272Z,61.64
2022-10-18T23:18:59.466Z,60.34
2022-10-18T23:21:28.175Z,60.83
2022-10-18T23:23:55.328Z,60.76
2022-10-18T23:26:24.545Z,61.18
2022-10-18T23:28:52.033Z,61.43
2022-10-18T23:31:21.144Z,62.00
2022-10-18T23:33:50.370Z,62.70
2022-10-18T23:36:17.889Z,62.30
2022-10-18T23:38:46.073Z,59.56
2022-10-18T23:41:13.339Z,59.24
2022-10-18T23:43:40.627Z,58.34
2022-10-18T23:46:08.672Z,58.76
2022-10-18T23:48:35.762Z,59.98
2022-10-18T23:51:03.810Z,58.98
2022-10-18T23:53:31.537Z,58.68
2022-10-18T23:56:00.351Z,60.74
2022-10-18T23:58:27.819Z,60.37
